sensor_id;sensor_type;location;lat;lon;timestamp;temperature;humidity
63897;DHT22;50063;52.084;5.414;2022-09-09T00:00:19;17.20;99.90
63897;DHT22;50063;52.084;5.414;2022-09-09T00:02:52;17.10;99.90
63897;DHT22;50063;52.084;5.414;2022-09-09T00:07:54;17.00;99.90
63897;DHT22;50063;52.084;5.414;2022-09-09T00:10:34;17.10;99.90
63897;DHT22;50063;52.084;5.414;2022-09-09T00:13:10;17.10;99.90
63897;DHT22;50063;52.084;5.414;2022-09-09T00:16:00;17.00;99.90
63897;DHT22;50063;52.084;5.414;2022-09-09T00:21:17;17.00;99.90
63897;DHT22;50063;52.084;5.414;2022-09-09T00:23:48;17.00;99.90
63897;DHT22;50063;52.084;5.414;2022-09-09T00:26:36;17.10;99.90
63897;DHT22;50063;52.084;5.414;2022-09-09T00:31:31;17.00;99.90
63897;DHT22;50063;52.084;5.414;2022-09-09T00:33:59;17.00;99.90
63897;DHT22;50063;52.084;5.414;2022-09-09T00:36:29;16.90;99.90
63897;DHT22;50063;52.084;5.414;2022-09-09T00:38:58;16.90;99.90
63897;DHT22;50063;52.084;5.414;2022-09-09T00:43:56;16.90;99.90
63897;DHT22;50063;52.084;5.414;2022-09-09T00:52:17;16.70;99.90
63897;DHT22;50063;52.084;5.414;2022-09-09T00:57:31;16.60;99.90
63897;DHT22;50063;52.084;5.414;2022-09-09T01:04:51;16.60;99.90
63897;DHT22;50063;52.084;5.414;2022-09-09T01:07:18;16.50;99.90
63897;DHT22;50063;52.084;5.414;2022-09-09T01:09:52;16.50;99.90
63897;DHT22;50063;52.084;5.414;2022-09-09T01:12:40;16.50;99.90
63897;DHT22;50063;52.084;5.414;2022-09-09T01:15:12;16.50;99.90
63897;DHT22;50063;52.084;5.414;2022-09-09T01:20:39;16.40;99.90
63897;DHT22;50063;52.084;5.414;2022-09-09T01:28:10;16.40;99.90
63897;DHT22;50063;52.084;5.414;2022-09-09T01:30:38;16.30;99.90
63897;DHT22;50063;52.084;5.414;2022-09-09T01:33:07;16.20;99.90
63897;DHT22;50063;52.084;5.414;2022-09-09T01:38:08;16.20;99.90
63897;DHT22;50063;52.084;5.414;2022-09-09T01:40:35;16.20;99.90
63897;DHT22;50063;52.084;5.414;2022-09-09T01:43:02;16.10;99.90
63897;DHT22;50063;52.084;5.414;2022-09-09T01:45:30;16.10;99.90
63897;DHT22;50063;52.084;5.414;2022-09-09T01:47:56;16.10;99.90
63897;DHT22;50063;52.084;5.414;2022-09-09T01:50:23;16.10;99.90
63897;DHT22;50063;52.084;5.414;2022-09-09T01:52:52;16.10;99.90
63897;DHT22;50063;52.084;5.414;2022-09-09T01:55:20;16.10;99.90
63897;DHT22;50063;52.084;5.414;2022-09-09T02:00:23;16.00;99.90
63897;DHT22;50063;52.084;5.414;2022-09-09T02:08:07;16.00;99.90
63897;DHT22;50063;52.084;5.414;2022-09-09T02:10:38;16.10;99.90
63897;DHT22;50063;52.084;5.414;2022-09-09T02:13:16;16.00;99.90
63897;DHT22;50063;52.084;5.414;2022-09-09T02:18:10;15.90;99.90
63897;DHT22;50063;52.084;5.414;2022-09-09T02:20:39;15.90;99.90
63897;DHT22;50063;52.084;5.414;2022-09-09T02:23:07;15.90;99.90
63897;DHT22;50063;52.084;5.414;2022-09-09T02:25:35;15.80;99.90
63897;DHT22;50063;52.084;5.414;2022-09-09T02:28:06;15.80;99.90
63897;DHT22;50063;52.084;5.414;2022-09-09T02:30:34;15.80;99.90
63897;DHT22;50063;52.084;5.414;2022-09-09T02:33:02;15.80;99.90
63897;DHT22;50063;52.084;5.414;2022-09-09T02:35:30;15.80;99.90
63897;DHT22;50063;52.084;5.414;2022-09-09T02:37:59;15.80;99.90
63897;DHT22;50063;52.084;5.414;2022-09-09T02:40:27;15.80;99.90
63897;DHT22;50063;52.084;5.414;2022-09-09T02:42:54;15.80;99.90
63897;DHT22;50063;52.084;5.414;2022-09-09T02:45:25;15.70;99.90
63897;DHT22;50063;52.084;5.414;2022-09-09T02:53:36;15.70;99.90
63897;DHT22;50063;52.084;5.414;2022-09-09T02:56:08;15.70;99.90
63897;DHT22;50063;52.084;5.414;2022-09-09T02:58:37;15.80;99.90
63897;DHT22;50063;52.084;5.414;2022-09-09T03:01:03;15.70;99.90
63897;DHT22;50063;52.084;5.414;2022-09-09T03:03:30;15.70;99.90
63897;DHT22;50063;52.084;5.414;2022-09-09T03:05:57;15.70;99.90
63897;DHT22;50063;52.084;5.414;2022-09-09T03:08:24;15.70;99.90
63897;DHT22;50063;52.084;5.414;2022-09-09T03:10:51;15.70;99.90
63897;DHT22;50063;52.084;5.414;2022-09-09T03:13:18;15.70;99.90
63897;DHT22;50063;52.084;5.414;2022-09-09T03:15:45;15.70;99.90
63897;DHT22;50063;52.084;5.414;2022-09-09T03:18:14;15.70;99.90
63897;DHT22;50063;52.084;5.414;2022-09-09T03:20:41;15.70;99.90
63897;DHT22;50063;52.084;5.414;2022-09-09T03:23:08;15.60;99.90
63897;DHT22;50063;52.084;5.414;2022-09-09T03:25:46;15.60;99.90
63897;DHT22;50063;52.084;5.414;2022-09-09T03:28:12;15.50;99.90
63897;DHT22;50063;52.084;5.414;2022-09-09T03:30:39;15.50;99.90
63897;DHT22;50063;52.084;5.414;2022-09-09T03:33:06;15.50;99.90
63897;DHT22;50063;52.084;5.414;2022-09-09T03:35:33;15.50;99.90
63897;DHT22;50063;52.084;5.414;2022-09-09T03:37:59;15.50;99.90
63897;DHT22;50063;52.084;5.414;2022-09-09T03:40:27;15.50;99.90
63897;DHT22;50063;52.084;5.414;2022-09-09T03:42:53;15.50;99.90
63897;DHT22;50063;52.084;5.414;2022-09-09T03:45:20;15.50;99.90
63897;DHT22;50063;52.084;5.414;2022-09-09T03:47:46;15.40;99.90
63897;DHT22;50063;52.084;5.414;2022-09-09T03:50:13;15.50;99.90
63897;DHT22;50063;52.084;5.414;2022-09-09T03:52:40;15.40;99.90
63897;DHT22;50063;52.084;5.414;2022-09-09T03:55:07;15.40;99.90
63897;DHT22;50063;52.084;5.414;2022-09-09T03:57:34;15.40;99.90
63897;DHT22;50063;52.084;5.414;2022-09-09T04:00:05;15.40;99.90
63897;DHT22;50063;52.084;5.414;2022-09-09T04:02:33;15.30;99.90
63897;DHT22;50063;52.084;5.414;2022-09-09T04:04:59;15.40;99.90
63897;DHT22;50063;52.084;5.414;2022-09-09T04:07:27;15.40;99.90
63897;DHT22;50063;52.084;5.414;2022-09-09T04:09:54;15.40;99.90
63897;DHT22;50063;52.084;5.414;2022-09-09T04:12:21;15.40;99.90
63897;DHT22;50063;52.084;5.414;2022-09-09T04:14:48;15.30;99.90
63897;DHT22;50063;52.084;5.414;2022-09-09T04:17:15;15.30;99.90
63897;DHT22;50063;52.084;5.414;2022-09-09T04:19:42;15.30;99.90
63897;DHT22;50063;52.084;5.414;2022-09-09T04:22:08;15.40;99.90
63897;DHT22;50063;52.084;5.414;2022-09-09T04:24:35;15.40;99.90
63897;DHT22;50063;52.084;5.414;2022-09-09T04:27:02;15.40;99.90
63897;DHT22;50063;52.084;5.414;2022-09-09T04:29:29;15.40;99.90
63897;DHT22;50063;52.084;5.414;2022-09-09T04:31:55;15.50;99.90
63897;DHT22;50063;52.084;5.414;2022-09-09T04:34:22;15.40;99.90
63897;DHT22;50063;52.084;5.414;2022-09-09T04:36:49;15.40;99.90
63897;DHT22;50063;52.084;5.414;2022-09-09T04:39:15;15.40;99.90
63897;DHT22;50063;52.084;5.414;2022-09-09T04:41:42;15.50;99.90
63897;DHT22;50063;52.084;5.414;2022-09-09T04:44:09;15.40;99.90
63897;DHT22;50063;52.084;5.414;2022-09-09T04:46:36;15.50;99.90
63897;DHT22;50063;52.084;5.414;2022-09-09T04:49:03;15.60;99.90
63897;DHT22;50063;52.084;5.414;2022-09-09T04:51:29;15.50;99.90
63897;DHT22;50063;52.084;5.414;2022-09-09T04:53:57;15.50;99.90
63897;DHT22;50063;52.084;5.414;2022-09-09T04:56:24;15.50;99.90
63897;DHT22;50063;52.084;5.414;2022-09-09T04:58:53;15.50;99.90
63897;DHT22;50063;52.084;5.414;2022-09-09T05:01:21;15.50;99.90
63897;DHT22;50063;52.084;5.414;2022-09-09T05:03:48;15.50;99.90
63897;DHT22;50063;52.084;5.414;2022-09-09T05:06:16;15.50;99.90
63897;DHT22;50063;52.084;5.414;2022-09-09T05:08:43;15.40;99.90
63897;DHT22;50063;52.084;5.414;2022-09-09T05:11:13;15.50;99.90
63897;DHT22;50063;52.084;5.414;2022-09-09T05:13:40;15.50;99.90
63897;DHT22;50063;52.084;5.414;2022-09-09T05:16:07;15.50;99.90
63897;DHT22;50063;52.084;5.414;2022-09-09T05:18:33;15.40;99.90
63897;DHT22;50063;52.084;5.414;2022-09-09T05:21:00;15.40;99.90
63897;DHT22;50063;52.084;5.414;2022-09-09T05:23:27;15.40;99.90
63897;DHT22;50063;52.084;5.414;2022-09-09T05:25:55;15.40;99.90
63897;DHT22;50063;52.084;5.414;2022-09-09T05:28:23;15.50;99.90
63897;DHT22;50063;52.084;5.414;2022-09-09T05:30:57;15.50;99.90
63897;DHT22;50063;52.084;5.414;2022-09-09T05:33:24;15.50;99.90
63897;DHT22;50063;52.084;5.414;2022-09-09T05:35:58;15.50;99.90
63897;DHT22;50063;52.084;5.414;2022-09-09T05:38:25;15.50;99.90
63897;DHT22;50063;52.084;5.414;2022-09-09T05:40:54;15.50;99.90
63897;DHT22;50063;52.084;5.414;2022-09-09T05:43:21;15.50;99.90
63897;DHT22;50063;52.084;5.414;2022-09-09T05:45:48;15.50;99.90
63897;DHT22;50063;52.084;5.414;2022-09-09T05:48:15;15.50;99.90
63897;DHT22;50063;52.084;5.414;2022-09-09T05:50:42;15.50;99.90
63897;DHT22;50063;52.084;5.414;2022-09-09T05:53:09;15.50;99.90
63897;DHT22;50063;52.084;5.414;2022-09-09T05:55:36;15.50;99.90
63897;DHT22;50063;52.084;5.414;2022-09-09T05:58:03;15.60;99.90
63897;DHT22;50063;52.084;5.414;2022-09-09T06:00:30;15.60;99.90
63897;DHT22;50063;52.084;5.414;2022-09-09T06:02:58;15.60;99.90
63897;DHT22;50063;52.084;5.414;2022-09-09T06:05:25;15.70;99.90
63897;DHT22;50063;52.084;5.414;2022-09-09T06:07:54;15.60;99.90
63897;DHT22;50063;52.084;5.414;2022-09-09T06:10:20;15.70;99.90
63897;DHT22;50063;52.084;5.414;2022-09-09T06:12:47;15.80;99.90
63897;DHT22;50063;52.084;5.414;2022-09-09T06:15:14;15.80;99.90
63897;DHT22;50063;52.084;5.414;2022-09-09T06:17:40;15.80;99.90
63897;DHT22;50063;52.084;5.414;2022-09-09T06:20:08;15.80;99.90
63897;DHT22;50063;52.084;5.414;2022-09-09T06:22:35;15.90;99.90
63897;DHT22;50063;52.084;5.414;2022-09-09T06:25:02;16.00;99.90
63897;DHT22;50063;52.084;5.414;2022-09-09T06:27:29;16.00;99.90
63897;DHT22;50063;52.084;5.414;2022-09-09T06:29:56;16.10;99.90
63897;DHT22;50063;52.084;5.414;2022-09-09T06:32:22;16.20;99.90
63897;DHT22;50063;52.084;5.414;2022-09-09T06:34:49;16.30;99.90
63897;DHT22;50063;52.084;5.414;2022-09-09T06:37:16;16.30;99.90
63897;DHT22;50063;52.084;5.414;2022-09-09T06:39:42;16.40;99.90
63897;DHT22;50063;52.084;5.414;2022-09-09T06:42:09;16.50;99.90
63897;DHT22;50063;52.084;5.414;2022-09-09T06:44:36;16.60;99.90
63897;DHT22;50063;52.084;5.414;2022-09-09T06:47:02;16.60;99.90
63897;DHT22;50063;52.084;5.414;2022-09-09T06:49:29;16.70;99.90
63897;DHT22;50063;52.084;5.414;2022-09-09T06:51:56;16.80;99.90
63897;DHT22;50063;52.084;5.414;2022-09-09T06:54:22;16.90;99.90
63897;DHT22;50063;52.084;5.414;2022-09-09T06:56:50;16.80;99.90
63897;DHT22;50063;52.084;5.414;2022-09-09T06:59:17;16.90;99.90
63897;DHT22;50063;52.084;5.414;2022-09-09T07:01:43;16.90;99.90
63897;DHT22;50063;52.084;5.414;2022-09-09T07:04:10;17.00;99.90
63897;DHT22;50063;52.084;5.414;2022-09-09T07:06:38;17.00;99.90
63897;DHT22;50063;52.084;5.414;2022-09-09T07:09:06;17.00;99.90
63897;DHT22;50063;52.084;5.414;2022-09-09T07:11:36;17.00;99.90
63897;DHT22;50063;52.084;5.414;2022-09-09T07:14:03;17.10;99.90
63897;DHT22;50063;52.084;5.414;2022-09-09T07:16:30;17.20;99.90
63897;DHT22;50063;52.084;5.414;2022-09-09T07:18:58;17.20;99.90
63897;DHT22;50063;52.084;5.414;2022-09-09T07:21:25;17.30;99.90
63897;DHT22;50063;52.084;5.414;2022-09-09T07:23:52;17.40;99.90
63897;DHT22;50063;52.084;5.414;2022-09-09T07:26:22;17.40;99.90
63897;DHT22;50063;52.084;5.414;2022-09-09T07:28:49;17.40;99.90
63897;DHT22;50063;52.084;5.414;2022-09-09T07:31:16;17.50;99.90
63897;DHT22;50063;52.084;5.414;2022-09-09T07:33:44;17.50;99.90
63897;DHT22;50063;52.084;5.414;2022-09-09T07:36:21;17.50;99.90
63897;DHT22;50063;52.084;5.414;2022-09-09T07:38:49;17.60;99.90
63897;DHT22;50063;52.084;5.414;2022-09-09T07:41:21;17.70;99.90
63897;DHT22;50063;52.084;5.414;2022-09-09T07:43:48;17.80;99.90
63897;DHT22;50063;52.084;5.414;2022-09-09T07:46:16;17.90;99.90
63897;DHT22;50063;52.084;5.414;2022-09-09T07:48:46;18.00;99.90
63897;DHT22;50063;52.084;5.414;2022-09-09T07:51:21;18.00;99.90
63897;DHT22;50063;52.084;5.414;2022-09-09T07:53:51;18.00;99.90
63897;DHT22;50063;52.084;5.414;2022-09-09T07:56:18;18.10;99.90
63897;DHT22;50063;52.084;5.414;2022-09-09T07:58:45;18.10;99.90
63897;DHT22;50063;52.084;5.414;2022-09-09T08:01:14;18.20;99.90
63897;DHT22;50063;52.084;5.414;2022-09-09T08:03:40;18.10;99.90
63897;DHT22;50063;52.084;5.414;2022-09-09T08:06:08;18.10;99.90
63897;DHT22;50063;52.084;5.414;2022-09-09T08:08:35;18.10;99.90
63897;DHT22;50063;52.084;5.414;2022-09-09T08:11:06;18.10;99.90
63897;DHT22;50063;52.084;5.414;2022-09-09T08:13:34;18.20;99.90
63897;DHT22;50063;52.084;5.414;2022-09-09T08:16:08;18.20;99.90
63897;DHT22;50063;52.084;5.414;2022-09-09T08:18:35;18.20;99.90
63897;DHT22;50063;52.084;5.414;2022-09-09T08:21:06;18.30;99.90
63897;DHT22;50063;52.084;5.414;2022-09-09T08:23:33;18.40;99.90
63897;DHT22;50063;52.084;5.414;2022-09-09T08:26:04;18.30;99.90
63897;DHT22;50063;52.084;5.414;2022-09-09T08:28:31;18.30;99.90
63897;DHT22;50063;52.084;5.414;2022-09-09T08:31:04;18.30;99.90
63897;DHT22;50063;52.084;5.414;2022-09-09T08:33:31;18.10;99.90
63897;DHT22;50063;52.084;5.414;2022-09-09T08:35:59;18.10;99.90
63897;DHT22;50063;52.084;5.414;2022-09-09T08:38:25;18.20;99.90
63897;DHT22;50063;52.084;5.414;2022-09-09T08:40:52;18.20;99.90
63897;DHT22;50063;52.084;5.414;2022-09-09T08:43:20;18.10;99.90
63897;DHT22;50063;52.084;5.414;2022-09-09T08:45:55;18.10;99.90
63897;DHT22;50063;52.084;5.414;2022-09-09T08:48:44;18.20;99.90
63897;DHT22;50063;52.084;5.414;2022-09-09T08:51:09;18.30;99.90
63897;DHT22;50063;52.084;5.414;2022-09-09T08:53:53;18.40;99.90
63897;DHT22;50063;52.084;5.414;2022-09-09T08:56:25;18.50;99.90
63897;DHT22;50063;52.084;5.414;2022-09-09T08:58:54;18.50;99.90
63897;DHT22;50063;52.084;5.414;2022-09-09T09:04:11;18.50;99.90
63897;DHT22;50063;52.084;5.414;2022-09-09T09:09:29;18.50;99.90
63897;DHT22;50063;52.084;5.414;2022-09-09T09:12:00;18.50;99.90
63897;DHT22;50063;52.084;5.414;2022-09-09T09:14:30;18.50;99.90
63897;DHT22;50063;52.084;5.414;2022-09-09T09:17:01;18.50;99.90
63897;DHT22;50063;52.084;5.414;2022-09-09T09:19:29;18.40;99.90
63897;DHT22;50063;52.084;5.414;2022-09-09T09:24:45;18.40;99.90
63897;DHT22;50063;52.084;5.414;2022-09-09T09:27:15;18.40;99.90
63897;DHT22;50063;52.084;5.414;2022-09-09T09:29:42;18.60;99.90
63897;DHT22;50063;52.084;5.414;2022-09-09T09:32:31;18.60;99.90
63897;DHT22;50063;52.084;5.414;2022-09-09T09:34:59;18.60;99.90
63897;DHT22;50063;52.084;5.414;2022-09-09T09:37:33;18.50;99.90
63897;DHT22;50063;52.084;5.414;2022-09-09T09:40:11;18.50;99.90
63897;DHT22;50063;52.084;5.414;2022-09-09T09:42:47;18.50;99.90
63897;DHT22;50063;52.084;5.414;2022-09-09T09:48:03;18.60;99.90
63897;DHT22;50063;52.084;5.414;2022-09-09T09:50:33;18.60;99.90
63897;DHT22;50063;52.084;5.414;2022-09-09T09:53:02;18.70;99.90
63897;DHT22;50063;52.084;5.414;2022-09-09T09:55:30;18.60;99.90
63897;DHT22;50063;52.084;5.414;2022-09-09T09:58:02;18.60;99.90
63897;DHT22;50063;52.084;5.414;2022-09-09T10:00:30;18.60;99.90
63897;DHT22;50063;52.084;5.414;2022-09-09T10:02:56;18.60;99.90
63897;DHT22;50063;52.084;5.414;2022-09-09T10:05:26;18.60;99.90
63897;DHT22;50063;52.084;5.414;2022-09-09T10:08:05;18.70;99.90
63897;DHT22;50063;52.084;5.414;2022-09-09T10:15:45;18.70;99.90
63897;DHT22;50063;52.084;5.414;2022-09-09T10:18:29;18.60;99.90
63897;DHT22;50063;52.084;5.414;2022-09-09T10:21:26;18.70;99.90
63897;DHT22;50063;52.084;5.414;2022-09-09T10:33:51;18.80;99.90
63897;DHT22;50063;52.084;5.414;2022-09-09T10:36:21;18.80;99.90
63897;DHT22;50063;52.084;5.414;2022-09-09T10:41:37;18.70;99.90
63897;DHT22;50063;52.084;5.414;2022-09-09T10:46:52;18.70;99.90
63897;DHT22;50063;52.084;5.414;2022-09-09T10:52:09;18.80;99.90
63897;DHT22;50063;52.084;5.414;2022-09-09T10:57:24;18.90;99.90
63897;DHT22;50063;52.084;5.414;2022-09-09T10:59:55;19.10;99.90
63897;DHT22;50063;52.084;5.414;2022-09-09T11:02:27;19.40;99.90
63897;DHT22;50063;52.084;5.414;2022-09-09T11:07:34;19.50;99.90
63897;DHT22;50063;52.084;5.414;2022-09-09T11:10:06;19.60;99.90
63897;DHT22;50063;52.084;5.414;2022-09-09T11:12:37;19.80;99.90
63897;DHT22;50063;52.084;5.414;2022-09-09T11:15:06;20.00;99.90
63897;DHT22;50063;52.084;5.414;2022-09-09T11:17:35;20.00;99.90
63897;DHT22;50063;52.084;5.414;2022-09-09T11:20:04;20.00;99.90
63897;DHT22;50063;52.084;5.414;2022-09-09T11:22:39;19.80;99.90
63897;DHT22;50063;52.084;5.414;2022-09-09T11:25:16;19.70;99.90
63897;DHT22;50063;52.084;5.414;2022-09-09T11:28:06;19.70;99.90
63897;DHT22;50063;52.084;5.414;2022-09-09T11:30:43;19.60;99.90
63897;DHT22;50063;52.084;5.414;2022-09-09T11:38:47;19.60;99.90
63897;DHT22;50063;52.084;5.414;2022-09-09T11:41:14;19.40;99.90
63897;DHT22;50063;52.084;5.414;2022-09-09T11:43:50;19.40;99.90
63897;DHT22;50063;52.084;5.414;2022-09-09T11:46:22;19.50;99.90
63897;DHT22;50063;52.084;5.414;2022-09-09T11:49:02;19.60;99.90
63897;DHT22;50063;52.084;5.414;2022-09-09T11:51:30;19.60;99.90
63897;DHT22;50063;52.084;5.414;2022-09-09T11:54:32;19.50;99.90
63897;DHT22;50063;52.084;5.414;2022-09-09T11:56:50;19.50;99.90
63897;DHT22;50063;52.084;5.414;2022-09-09T11:59:20;19.50;99.90
63897;DHT22;50063;52.084;5.414;2022-09-09T12:01:50;19.30;99.90
63897;DHT22;50063;52.084;5.414;2022-09-09T12:11:44;19.30;99.90
63897;DHT22;50063;52.084;5.414;2022-09-09T12:14:20;19.30;99.90
63897;DHT22;50063;52.084;5.414;2022-09-09T12:16:47;19.20;99.90
63897;DHT22;50063;52.084;5.414;2022-09-09T12:19:16;19.20;99.90
63897;DHT22;50063;52.084;5.414;2022-09-09T12:24:34;19.10;99.90
63897;DHT22;50063;52.084;5.414;2022-09-09T12:27:06;19.10;99.90
63897;DHT22;50063;52.084;5.414;2022-09-09T12:32:21;19.30;99.90
63897;DHT22;50063;52.084;5.414;2022-09-09T12:37:31;19.40;99.90
63897;DHT22;50063;52.084;5.414;2022-09-09T12:39:59;19.40;99.90
63897;DHT22;50063;52.084;5.414;2022-09-09T12:42:28;19.50;99.90
63897;DHT22;50063;52.084;5.414;2022-09-09T12:44:59;19.50;99.90
63897;DHT22;50063;52.084;5.414;2022-09-09T12:47:29;19.30;99.90
63897;DHT22;50063;52.084;5.414;2022-09-09T12:49:57;19.30;99.90
63897;DHT22;50063;52.084;5.414;2022-09-09T12:54:57;19.50;99.90
63897;DHT22;50063;52.084;5.414;2022-09-09T12:57:25;19.50;99.90
63897;DHT22;50063;52.084;5.414;2022-09-09T13:00:03;19.50;99.90
63897;DHT22;50063;52.084;5.414;2022-09-09T13:02:30;19.60;99.90
63897;DHT22;50063;52.084;5.414;2022-09-09T13:05:05;19.80;99.90
63897;DHT22;50063;52.084;5.414;2022-09-09T13:07:32;20.00;99.90
63897;DHT22;50063;52.084;5.414;2022-09-09T13:09:59;20.00;99.90
63897;DHT22;50063;52.084;5.414;2022-09-09T13:12:25;20.00;99.90
63897;DHT22;50063;52.084;5.414;2022-09-09T13:14:53;19.90;99.90
63897;DHT22;50063;52.084;5.414;2022-09-09T13:17:28;19.80;99.90
63897;DHT22;50063;52.084;5.414;2022-09-09T13:19:55;19.70;99.90
63897;DHT22;50063;52.084;5.414;2022-09-09T13:22:33;19.70;99.90
63897;DHT22;50063;52.084;5.414;2022-09-09T13:27:34;19.70;99.90
63897;DHT22;50063;52.084;5.414;2022-09-09T13:30:19;19.70;99.90
63897;DHT22;50063;52.084;5.414;2022-09-09T13:32:46;19.70;99.90
63897;DHT22;50063;52.084;5.414;2022-09-09T13:35:23;19.90;99.90
63897;DHT22;50063;52.084;5.414;2022-09-09T13:37:50;19.90;99.90
63897;DHT22;50063;52.084;5.414;2022-09-09T13:40:17;20.00;99.90
63897;DHT22;50063;52.084;5.414;2022-09-09T13:42:44;20.00;99.90
63897;DHT22;50063;52.084;5.414;2022-09-09T13:45:15;19.90;99.90
63897;DHT22;50063;52.084;5.414;2022-09-09T13:47:43;20.00;99.90
63897;DHT22;50063;52.084;5.414;2022-09-09T13:50:21;20.00;99.90
63897;DHT22;50063;52.084;5.414;2022-09-09T13:52:53;20.10;99.90
63897;DHT22;50063;52.084;5.414;2022-09-09T13:55:21;20.10;99.90
63897;DHT22;50063;52.084;5.414;2022-09-09T13:57:55;20.10;99.90
63897;DHT22;50063;52.084;5.414;2022-09-09T14:00:22;20.10;99.90
63897;DHT22;50063;52.084;5.414;2022-09-09T14:02:49;20.00;99.90
63897;DHT22;50063;52.084;5.414;2022-09-09T14:05:16;20.10;99.90
63897;DHT22;50063;52.084;5.414;2022-09-09T14:07:43;20.10;99.90
63897;DHT22;50063;52.084;5.414;2022-09-09T14:10:10;20.20;99.90
63897;DHT22;50063;52.084;5.414;2022-09-09T14:12:37;20.10;99.90
63897;DHT22;50063;52.084;5.414;2022-09-09T14:15:04;20.00;99.90
63897;DHT22;50063;52.084;5.414;2022-09-09T14:17:31;20.10;99.90
63897;DHT22;50063;52.084;5.414;2022-09-09T14:19:58;20.20;99.90
63897;DHT22;50063;52.084;5.414;2022-09-09T14:22:24;20.10;99.90
63897;DHT22;50063;52.084;5.414;2022-09-09T14:24:52;20.10;99.90
63897;DHT22;50063;52.084;5.414;2022-09-09T14:27:19;20.10;99.90
63897;DHT22;50063;52.084;5.414;2022-09-09T14:29:46;20.10;99.90
63897;DHT22;50063;52.084;5.414;2022-09-09T14:32:12;20.10;99.90
63897;DHT22;50063;52.084;5.414;2022-09-09T14:34:39;20.10;99.90
63897;DHT22;50063;52.084;5.414;2022-09-09T14:37:06;20.10;99.90
63897;DHT22;50063;52.084;5.414;2022-09-09T14:39:33;20.10;99.90
63897;DHT22;50063;52.084;5.414;2022-09-09T14:41:59;20.00;99.90
63897;DHT22;50063;52.084;5.414;2022-09-09T14:44:27;20.10;99.90
63897;DHT22;50063;52.084;5.414;2022-09-09T14:46:53;20.10;99.90
63897;DHT22;50063;52.084;5.414;2022-09-09T14:49:20;20.00;99.90
63897;DHT22;50063;52.084;5.414;2022-09-09T14:51:47;19.90;99.90
63897;DHT22;50063;52.084;5.414;2022-09-09T14:54:14;20.00;99.90
63897;DHT22;50063;52.084;5.414;2022-09-09T14:56:41;20.00;99.90
63897;DHT22;50063;52.084;5.414;2022-09-09T14:59:08;20.10;99.90
63897;DHT22;50063;52.084;5.414;2022-09-09T15:01:34;20.00;99.90
63897;DHT22;50063;52.084;5.414;2022-09-09T15:04:03;20.00;99.90
63897;DHT22;50063;52.084;5.414;2022-09-09T15:06:30;19.90;99.90
63897;DHT22;50063;52.084;5.414;2022-09-09T15:08:59;19.80;99.90
63897;DHT22;50063;52.084;5.414;2022-09-09T15:11:27;19.70;99.90
63897;DHT22;50063;52.084;5.414;2022-09-09T15:13:54;19.90;99.90
63897;DHT22;50063;52.084;5.414;2022-09-09T15:16:23;19.80;99.90
63897;DHT22;50063;52.084;5.414;2022-09-09T15:18:51;20.30;99.90
63897;DHT22;50063;52.084;5.414;2022-09-09T15:21:20;20.30;99.90
63897;DHT22;50063;52.084;5.414;2022-09-09T15:23:48;19.90;99.90
63897;DHT22;50063;52.084;5.414;2022-09-09T15:26:15;19.80;99.90
63897;DHT22;50063;52.084;5.414;2022-09-09T15:28:42;20.10;99.90
63897;DHT22;50063;52.084;5.414;2022-09-09T15:31:43;20.50;99.90
63897;DHT22;50063;52.084;5.414;2022-09-09T15:34:04;20.90;99.90
63897;DHT22;50063;52.084;5.414;2022-09-09T15:39:00;21.10;99.90
63897;DHT22;50063;52.084;5.414;2022-09-09T15:41:27;20.70;99.90
63897;DHT22;50063;52.084;5.414;2022-09-09T15:43:55;20.30;99.90
63897;DHT22;50063;52.084;5.414;2022-09-09T15:48:50;19.90;99.90
63897;DHT22;50063;52.084;5.414;2022-09-09T15:51:20;19.90;99.90
63897;DHT22;50063;52.084;5.414;2022-09-09T15:54:06;20.40;99.90
63897;DHT22;50063;52.084;5.414;2022-09-09T15:56:33;20.80;99.90
63897;DHT22;50063;52.084;5.414;2022-09-09T15:59:01;20.70;99.90
63897;DHT22;50063;52.084;5.414;2022-09-09T16:01:29;20.80;99.90
63897;DHT22;50063;52.084;5.414;2022-09-09T16:03:57;21.80;99.90
63897;DHT22;50063;52.084;5.414;2022-09-09T16:06:25;22.20;99.90
63897;DHT22;50063;52.084;5.414;2022-09-09T16:08:55;22.90;99.90
63897;DHT22;50063;52.084;5.414;2022-09-09T16:11:25;23.40;99.90
63897;DHT22;50063;52.084;5.414;2022-09-09T16:13:53;23.40;99.90
63897;DHT22;50063;52.084;5.414;2022-09-09T16:16:21;24.00;99.90
63897;DHT22;50063;52.084;5.414;2022-09-09T16:18:49;23.50;99.90
63897;DHT22;50063;52.084;5.414;2022-09-09T16:21:18;22.50;99.90
63897;DHT22;50063;52.084;5.414;2022-09-09T16:23:46;22.50;99.90
63897;DHT22;50063;52.084;5.414;2022-09-09T16:26:14;22.10;99.90
63897;DHT22;50063;52.084;5.414;2022-09-09T16:28:41;22.20;99.90
63897;DHT22;50063;52.084;5.414;2022-09-09T16:31:10;22.30;99.90
63897;DHT22;50063;52.084;5.414;2022-09-09T16:33:37;22.10;99.90
63897;DHT22;50063;52.084;5.414;2022-09-09T16:36:07;22.10;99.90
63897;DHT22;50063;52.084;5.414;2022-09-09T16:38:34;21.80;99.90
63897;DHT22;50063;52.084;5.414;2022-09-09T16:41:05;21.70;99.90
63897;DHT22;50063;52.084;5.414;2022-09-09T16:43:33;21.60;99.90
63897;DHT22;50063;52.084;5.414;2022-09-09T16:45:59;21.30;99.90
63897;DHT22;50063;52.084;5.414;2022-09-09T16:48:32;21.20;99.90
63897;DHT22;50063;52.084;5.414;2022-09-09T16:51:03;21.10;99.90
63897;DHT22;50063;52.084;5.414;2022-09-09T16:53:32;20.90;99.90
63897;DHT22;50063;52.084;5.414;2022-09-09T16:56:04;20.90;99.90
63897;DHT22;50063;52.084;5.414;2022-09-09T16:58:31;20.80;99.90
63897;DHT22;50063;52.084;5.414;2022-09-09T17:00:59;20.80;99.90
63897;DHT22;50063;52.084;5.414;2022-09-09T17:03:25;20.70;99.90
63897;DHT22;50063;52.084;5.414;2022-09-09T17:05:52;20.50;99.90
63897;DHT22;50063;52.084;5.414;2022-09-09T17:08:19;20.60;99.90
63897;DHT22;50063;52.084;5.414;2022-09-09T17:10:46;20.50;99.90
63897;DHT22;50063;52.084;5.414;2022-09-09T17:13:13;20.40;99.90
63897;DHT22;50063;52.084;5.414;2022-09-09T17:15:40;20.40;99.90
63897;DHT22;50063;52.084;5.414;2022-09-09T17:18:10;20.20;99.90
63897;DHT22;50063;52.084;5.414;2022-09-09T17:20:37;20.00;99.90
63897;DHT22;50063;52.084;5.414;2022-09-09T17:23:12;20.00;99.90
63897;DHT22;50063;52.084;5.414;2022-09-09T17:25:42;20.00;99.90
63897;DHT22;50063;52.084;5.414;2022-09-09T17:28:09;20.00;99.90
63897;DHT22;50063;52.084;5.414;2022-09-09T17:30:36;19.80;99.90
63897;DHT22;50063;52.084;5.414;2022-09-09T17:33:03;19.80;99.90
63897;DHT22;50063;52.084;5.414;2022-09-09T17:35:30;19.80;99.90
63897;DHT22;50063;52.084;5.414;2022-09-09T17:37:57;19.80;99.90
63897;DHT22;50063;52.084;5.414;2022-09-09T17:40:24;19.70;99.90
63897;DHT22;50063;52.084;5.414;2022-09-09T17:42:51;19.60;99.90